Latest Coastal Weather Observations for Wilsons Promontory

IDT60701

Issued at 4:52 am EDT Thursday 18 January 2018 (issued every 10 minutes, with the page automatically refreshed every 10 minutes)

About coastal observations | Map of coastal stations | Coastal observations for TAS | Marine services | Other Formats
Station Details ID: 085096 Name: WILSONS PROMONTORY LIGHTHOUSE Lat: -39.13 Lon: 146.42 Height: 95.0 m
Data from the previous 72 hours. | See also: Recent months at Wilsons Promontory
Date/Time
EDT
Temp
°C
Wind Pressure Rain since
9am
mm
Weather Cloud Vis
km
Sea
Height
m
Swell
Dir  Spd
kts
Gust
kts
hPa Trend Height
m
Period
s
Dir
18/04:30am 17.6 NNE 15 19 1014.7 - 0.0 - - - - - - -
18/04:00am 17.7 NNE 15 19 1014.8 - 0.0 - - - - - - -
18/03:30am 17.8 NNE 17 21 1014.7 - 0.0 - - - - - - -
18/03:00am 17.7 NNE 14 20 1015.1 - 0.0 - - - - - - -
18/02:30am 18.1 NNE 14 20 1015.7 - 0.0 - - - - - - -
18/02:00am 18.6 NNE 14 19 1016.0 - 0.0 - - - - - - -
18/01:30am 18.7 NNE 16 21 1016.4 - 0.0 - - - - - - -
18/01:00am 18.1 NNE 14 20 1016.6 - 0.0 - - - - - - -
18/12:30am 17.8 NNE 15 21 1016.9 - 0.0 - - - - - - -
18/12:00am 17.8 NNE 14 20 1016.8 - 0.0 - - - - - - -
 
Date/Time
EDT
Temp
°C
Wind Pressure Rain since
9am
mm
Weather Cloud Vis
km
Sea
Height
m
Swell
Dir  Spd
kts
Gust
kts
hPa Trend Height
m
Period
s
Dir
17/11:30pm 17.8 NNE 16 21 1017.1 - 0.0 - - - - - - -
17/11:00pm 17.7 NNE 15 21 1017.2 - 0.0 - - - - - - -
17/10:30pm 17.6 NNE 15 20 1017.4 - 0.0 - - - - - - -
17/10:00pm 17.6 NNE 15 19 1017.2 - 0.0 - - - - - - -
17/09:30pm 17.6 NNE 15 20 1017.1 - 0.0 - - - - - - -
17/09:00pm 17.6 NNE 15 21 1016.8 - 0.0 - - - - - - -
17/08:30pm 17.9 NNE 15 19 1016.8 - 0.0 - - - - - - -
17/08:00pm 18.3 NNE 14 19 1016.8 - 0.0 - - - - - - -
17/07:30pm 18.4 NNE 15 19 1016.8 - 0.0 - - - - - - -
17/07:00pm 18.6 NNE 17 20 1016.8 - 0.0 - - - - - - -
17/06:30pm 18.6 NNE 17 20 1016.8 - 0.0 - - - - - - -
17/06:00pm 18.6 NNE 18 20 1016.6 - 0.0 - - - - - - -
17/05:30pm 18.7 NNE 18 21 1017.2 - 0.0 - - - - - - -
17/05:00pm 19.0 NE 17 19 1017.4 - 0.0 - - - - - - -
17/04:30pm 19.3 NE 16 19 1017.5 - 0.0 - - - - - - -
17/04:00pm 19.6 NE 16 19 1017.8 - 0.0 - - - - - - -
17/03:30pm 19.2 NE 15 18 1018.0 - 0.0 - - - - - - -
17/03:00pm 19.6 NE 16 19 1017.9 - 0.0 - - - - - - -
17/02:30pm 19.5 NE 17 20 1018.3 - 0.0 - - - - - - -
17/02:00pm 19.6 NE 17 21 1018.4 - 0.0 - - - - - - -
17/01:30pm 19.3 NE 18 22 1018.6 - 0.0 - - - - - - -
17/01:00pm 19.4 NE 16 19 1018.9 - 0.0 - - - - - - -
17/12:30pm 19.6 NE 15 19 1019.4 - 0.0 - - - - - - -
17/12:00pm 19.3 NE 16 19 1019.4 - 0.0 - - - - - - -
17/11:30am 19.6 NE 14 17 1019.9 - 0.0 - - - - - - -
17/11:00am 19.3 NE 15 18 1020.1 - 0.0 - - - - - - -
17/10:30am 19.6 NE 14 18 1020.3 - 0.0 - - - - - - -
17/10:00am 19.0 NNE 15 19 1020.2 - 0.0 - - - - - - -
17/09:30am 18.7 NE 16 21 1020.2 - 0.0 - - - - - - -
17/09:00am 18.5 NE 16 20 1020.1 - 0.0 - - - - - - -
17/08:30am 18.4 NE 16 21 1020.2 - 0.0 - - - - - - -
17/08:00am 17.7 NE 18 22 1019.8 - 0.0 - - - - - - -
17/07:30am 17.5 NE 16 20 1019.6 - 0.0 - - - - - - -
17/07:00am 16.9 NE 18 22 1019.3 - 0.0 - - - - - - -
17/06:30am 16.2 NE 16 21 1019.3 - 0.0 - - - - - - -
17/06:00am 15.9 NE 17 22 1018.8 - 0.0 - - - - - - -
17/05:30am 15.8 NE 17 22 1019.1 - 0.0 - - - - - - -
17/05:00am 15.8 NE 18 22 1019.3 - 0.0 - - - - - - -
17/04:30am 15.6 NE 18 23 1019.3 - 0.0 - - - - - - -
17/04:00am 15.5 NE 17 22 1019.7 - 0.0 - - - - - - -
17/03:30am 15.5 ENE 16 21 1019.9 - 0.0 - - - - - - -
17/03:00am 15.5 ENE 16 21 1020.0 - 0.0 - - - - - - -
17/02:30am 15.5 ENE 17 21 1020.8 - 0.0 - - - - - - -
17/02:00am 15.7 ENE 16 19 1021.1 - 0.0 - - - - - - -
17/01:30am 15.7 ENE 16 19 1021.5 - 0.0 - - - - - - -
17/01:00am 15.8 ENE 15 19 1021.7 - 0.0 - - - - - - -
17/12:30am 15.9 ENE 15 17 1021.9 - 0.0 - - - - - - -
17/12:00am 16.0 ENE 15 17 1021.9 - 0.0 - - - - - - -
 
Date/Time
EDT
Temp
°C
Wind Pressure Rain since
9am
mm
Weather Cloud Vis
km
Sea
Height
m
Swell
Dir  Spd
kts
Gust
kts
hPa Trend Height
m
Period
s
Dir
16/11:30pm 16.1 ENE 12 16 1022.1 - 0.0 - - - - - - -
16/11:00pm 16.1 NE 12 14 1022.2 - 0.0 - - - - - - -
16/10:30pm 16.2 NE 14 17 1022.4 - 0.0 - - - - - - -
16/10:00pm 16.1 NE 14 17 1022.4 - 0.0 - - - - - - -
16/09:30pm 16.2 NE 14 17 1022.5 - 0.0 - - - - - - -
16/09:00pm 16.3 NE 15 18 1022.2 - 0.0 - - - - - - -
16/08:30pm 16.4 NE 14 17 1022.4 - 0.0 - - - - - - -
16/08:00pm 16.5 NE 15 17 1022.3 - 0.0 - - - - - - -
16/07:30pm 16.5 NE 13 17 1022.4 - 0.0 - - - - - - -
16/07:00pm 17.1 ENE 13 17 1022.3 - 0.0 - - - - - - -
16/06:30pm 16.9 NE 14 17 1022.4 - 0.0 - - - - - - -
16/06:00pm 17.3 NE 14 17 1022.4 - 0.0 - - - - - - -
16/05:30pm 17.4 NE 14 18 1022.6 - 0.0 - - - - - - -
16/05:00pm 17.9 NE 13 16 1022.6 - 0.0 - - - - - - -
16/04:30pm 17.9 NE 13 16 1023.2 - 0.0 - - - - - - -
16/04:00pm 18.5 NE 13 17 1023.3 - 0.0 - - - - - - -
16/03:30pm 18.1 NE 13 16 1023.5 - 0.0 - - - - - - -
16/03:00pm 18.0 ENE 13 15 1023.4 - 0.0 - - - - - - -
16/02:30pm 18.7 ENE 12 16 1023.8 - 0.0 - - - - - - -
16/02:00pm 18.1 ENE 14 17 1024.0 - 0.0 - - - - - - -
16/01:30pm 17.4 ENE 14 17 1024.3 - 0.0 - - - - - - -
16/01:00pm 18.2 ENE 14 18 1024.5 - 0.0 - - - - - - -
16/12:30pm 18.0 ENE 16 19 1024.7 - 0.0 - - - - - - -
16/12:00pm 17.4 ENE 16 19 1024.8 - 0.0 - - - - - - -
16/11:30am 17.1 ENE 18 22 1024.8 - 0.0 - - - - - - -
16/11:00am 17.6 ENE 16 20 1024.7 - 0.0 - - - - - - -
16/10:30am 17.7 ENE 18 21 1024.6 - 0.0 - - - - - - -
16/10:00am 16.9 ENE 20 25 1024.6 - 0.0 - - - - - - -
16/09:30am 16.3 ENE 22 25 1024.7 - 0.0 - - - - - - -
16/09:00am 16.4 E 22 25 1024.5 - 0.0 - - - - - - -
16/08:30am 16.3 ENE 23 27 1024.2 - 0.0 - - - - - - -
16/08:00am 16.3 ENE 24 28 1023.8 - 0.0 - - - - - - -
16/07:30am 16.3 ENE 25 28 1023.2 - 0.0 - - - - - - -
16/07:00am 15.9 ENE 26 29 1023.0 - 0.0 - - - - - - -
16/06:30am 16.0 ENE 25 29 1022.6 - 0.0 - - - - - - -
16/06:00am 16.1 ENE 21 26 1022.4 - 0.0 - - - - - - -
16/05:30am 16.0 ENE 22 27 1022.4 - 0.0 - - - - - - -
16/05:00am 16.0 NE 23 27 1022.0 - 0.0 - - - - - - -
16/04:30am 16.0 ENE 24 28 1022.0 - 0.0 - - - - - - -
16/04:00am 16.1 NE 24 27 1021.7 - 0.0 - - - - - - -
16/03:30am 16.2 ENE 21 26 1021.8 - 0.0 - - - - - - -
16/03:00am 16.3 ENE 21 26 1022.0 - 0.0 - - - - - - -
16/02:30am 16.4 ENE 20 26 1022.5 - 0.0 - - - - - - -
16/02:00am 16.6 ENE 19 25 1022.7 - 0.0 - - - - - - -
16/01:30am 16.7 ENE 23 27 1022.9 - 0.0 - - - - - - -
16/01:00am 16.9 ENE 22 27 1022.9 - 0.0 - - - - - - -
16/12:30am 17.0 ENE 23 28 1023.1 - 0.0 - - - - - - -
16/12:00am 17.0 ENE 21 25 1023.0 - 0.0 - - - - - - -
 
Date/Time
EDT
Temp
°C
Wind Pressure Rain since
9am
mm
Weather Cloud Vis
km
Sea
Height
m
Swell
Dir  Spd
kts
Gust
kts
hPa Trend Height
m
Period
s
Dir
15/11:30pm 17.1 ENE 22 27 1022.9 - 0.0 - - - - - - -
15/11:00pm 17.3 ENE 23 27 1022.7 - 0.0 - - - - - - -
15/10:30pm 17.3 ENE 22 27 1022.5 - 0.0 - - - - - - -
15/10:00pm 17.5 ENE 15 18 1022.3 - 0.0 - - - - - - -
15/09:30pm 17.0 ENE 4 5 1021.9 - 0.0 - - - - - - -
15/09:00pm 17.4 CALM 0 0 1021.3 - 0.0 - - - - - - -
15/08:30pm 18.4 WSW 4 5 1021.1 - 0.0 - - - - - - -
15/08:00pm 19.1 WSW 6 8 1020.7 - 0.0 - - - - - - -
15/07:30pm 19.2 W 8 10 1020.4 - 0.0 - - - - - - -
15/07:00pm 19.4 W 7 10 1020.2 - 0.0 - - - - - - -
15/06:30pm 19.0 WSW 11 14 1019.7 - 0.0 - - - - - - -
15/06:00pm 19.3 W 13 17 1018.9 - 0.0 - - - - - - -
15/05:30pm 19.5 W 14 20 1019.1 - 0.0 - - - - - - -
15/05:00pm 18.9 W 17 21 1018.7 - 0.0 - - - - - - -
15/04:30pm 18.5 WSW 15 19 1019.0 - 0.0 - - - - - - -
15/04:00pm 18.3 WSW 20 24 1019.2 - 0.0 - - - - - - -
15/03:30pm 18.0 WSW 21 24 1019.0 - 0.0 - - - - - - -
15/03:00pm 17.9 WSW 22 26 1018.6 - 0.0 - - - - - - -
15/02:30pm 17.9 WSW 20 25 1018.8 - 0.0 - - - - - - -
15/02:00pm 17.7 WSW 23 28 1018.7 - 0.0 - - - - - - -
15/01:30pm 17.6 WSW 24 28 1018.8 - 0.0 - - - - - - -
15/01:00pm 17.8 SW 27 31 1018.7 - 0.0 - - - - - - -
15/12:30pm 17.4 SW 24 30 1018.7 - 0.0 - - - - - - -
15/12:00pm 17.4 WSW 27 33 1018.1 - 0.0 - - - - - - -
15/11:43am 17.6 WSW 22 33 1018.1 - 0.0 - - - - - - -
15/11:30am 17.4 W 21 27 1018.1 - 0.0 - - - - - - -
15/11:00am 17.9 W 21 29 1018.1 - 0.0 - - - - - - -
15/10:30am 17.3 WSW 24 35 1017.8 - 0.0 - - - - - - -
15/10:08am 17.0 WSW 23 33 1017.7 - 0.0 - - - - - - -
15/10:00am 17.3 WSW 22 30 1017.8 - 0.0 - - - - - - -
15/09:44am 17.4 W 19 29 1017.8 - 0.0 - - - - - - -
15/09:30am 17.5 W 20 25 1017.9 - 0.0 - - - - - - -
15/09:00am 16.6 W 22 28 1017.4 - 0.0 - - - - - - -
15/08:51am 16.6 WSW 25 35 1017.5 - 0.0 - - - - - - -
15/08:30am 16.2 WSW 29 35 1017.0 - 0.0 - - - - - - -
15/08:00am 16.3 WSW 30 36 1016.4 - 0.0 - - - - - - -
15/07:44am 16.1 W 25 39 1016.4 - 0.0 - - - - - - -
15/07:34am 16.1 WSW 36 39 1015.8 - 0.0 - - - - - - -
15/07:32am 16.5 WSW 25 36 1016.0 - 0.0 - - - - - - -
15/07:30am 16.6 WSW 25 33 1016.3 - 0.0 - - - - - - -
15/07:00am 16.3 WSW 29 35 1015.8 - 0.0 - - - - - - -
15/06:38am 16.0 WSW 32 42 1015.5 - 0.0 - - - - - - -
15/06:30am 15.7 WSW 37 42 1015.3 - 0.0 - - - - - - -
15/06:26am 15.7 WSW 37 40 1015.2 - 0.0 - - - - - - -
15/06:24am 15.8 WSW 26 40 1015.5 - 0.0 - - - - - - -
15/06:00am 16.1 WSW 26 35 1015.5 - 0.0 - - - - - - -
15/05:32am 16.1 WSW 24 34 1015.6 - 0.0 - - - - - - -
15/05:30am 16.0 WSW 25 34 1015.6 - 0.0 - - - - - - -
15/05:00am 15.7 WSW 24 33 1015.5 - 0.0 - - - - - - -

Other Formats:

Comma delimited format used in spreadsheet applications
http://www.bom.gov.au/fwo/IDT60701/IDT60701.94893.axf

JavaScript Object Notation format (JSON) in row-major order
http://www.bom.gov.au/fwo/IDT60701/IDT60701.94893.json